Time;durP1;ratioP1;P1;durP2;ratioP2;P2;SDS_P1;SDS_P2;PMS_P1;PMS_P2;Temp;Humidity;BMP_temperature;BMP_pressure;BME280_temperature;BME280_humidity;BME280_pressure;Samples;Min_cycle;Max_cycle;Signal;HPM_P1;HPM_P2
2023/10/24 00:04:38;;;;;;;6.50;5.60;;;14.50;99.90;;;;;;10460467;28;20218;-78
2023/10/24 00:10:01;;;;;;;6.27;5.77;;;14.50;99.90;;;;;;10459565;28;20233;-78
2023/10/24 00:15:23;;;;;;;6.10;5.13;;;14.50;99.90;;;;;;10452174;28;20604;-78
2023/10/24 00:20:46;;;;;;;5.37;4.97;;;14.50;99.90;;;;;;10457675;28;20209;-78
2023/10/24 00:26:09;;;;;;;6.00;5.50;;;14.50;99.90;;;;;;10458553;28;20214;-78
2023/10/24 00:31:31;;;;;;;5.43;4.93;;;14.40;99.90;;;;;;10456354;28;20230;-78
2023/10/24 00:36:56;;;;;;;8.00;5.70;;;14.40;99.90;;;;;;10457776;28;20678;-78
2023/10/24 00:42:18;;;;;;;5.70;5.20;;;14.40;99.90;;;;;;10455525;28;20701;-78
2023/10/24 00:47:41;;;;;;;5.73;5.23;;;14.40;99.90;;;;;;10457428;28;20221;-77
2023/10/24 00:53:04;;;;;;;12.80;9.80;;;14.40;99.90;;;;;;10460556;28;20224;-78
2023/10/24 00:58:28;;;;;;;8.97;7.20;;;14.40;99.90;;;;;;10454415;28;20780;-79
2023/10/24 01:03:50;;;;;;;7.30;6.10;;;14.40;99.90;;;;;;10451214;28;20706;-79
2023/10/24 01:09:14;;;;;;;10.23;8.90;;;14.40;99.90;;;;;;10460618;28;20221;-78
2023/10/24 01:14:36;;;;;;;7.70;6.63;;;14.40;99.90;;;;;;10456079;28;20222;-78
2023/10/24 01:19:58;;;;;;;6.80;6.30;;;14.40;99.90;;;;;;10455055;28;20197;-79
2023/10/24 01:25:22;;;;;;;8.83;7.87;;;14.40;99.90;;;;;;10453392;28;20217;-79
2023/10/24 01:30:44;;;;;;;7.17;6.23;;;14.40;99.90;;;;;;10423968;28;20204;-79
2023/10/24 01:36:06;;;;;;;7.70;7.00;;;14.40;99.90;;;;;;10457021;28;20198;-79
2023/10/24 01:41:30;;;;;;;6.90;6.20;;;14.30;99.90;;;;;;10456038;28;20226;-78
2023/10/24 01:46:53;;;;;;;9.17;8.37;;;14.30;99.90;;;;;;10457780;28;20218;-79
2023/10/24 01:52:15;;;;;;;7.90;7.20;;;14.30;99.90;;;;;;10455128;28;20213;-78
2023/10/24 01:57:39;;;;;;;8.63;7.83;;;14.30;99.90;;;;;;10457668;28;20202;-78
2023/10/24 02:03:01;;;;;;;6.63;6.00;;;14.30;99.90;;;;;;10455304;28;20225;-79
2023/10/24 02:08:24;;;;;;;6.23;5.63;;;14.30;99.90;;;;;;10456239;28;20214;-79
2023/10/24 02:13:48;;;;;;;6.10;5.60;;;14.30;99.90;;;;;;10455265;28;20272;-78
2023/10/24 02:19:11;;;;;;;6.90;6.30;;;14.30;99.90;;;;;;10454951;28;20277;-79
2023/10/24 02:24:33;;;;;;;6.70;6.20;;;14.30;99.90;;;;;;10455279;28;20236;-78
2023/10/24 02:29:56;;;;;;;6.67;6.17;;;14.30;99.90;;;;;;10438980;28;20232;-78
2023/10/24 02:35:19;;;;;;;7.13;6.37;;;14.20;99.90;;;;;;10454168;28;20694;-79
2023/10/24 02:40:41;;;;;;;6.27;5.60;;;14.30;99.90;;;;;;10453110;28;20204;-79
2023/10/24 02:46:07;;;;;;;6.80;5.60;;;14.30;99.90;;;;;;10453684;28;20212;-79
2023/10/24 02:51:29;;;;;;;6.33;5.93;;;14.30;99.90;;;;;;10457509;28;20213;-78
2023/10/24 02:56:51;;;;;;;6.50;5.90;;;14.30;99.90;;;;;;10463138;28;20185;-78
2023/10/24 03:02:15;;;;;;;5.30;4.90;;;14.30;99.90;;;;;;10466866;28;20609;-78
2023/10/24 03:07:37;;;;;;;5.83;5.33;;;14.30;99.90;;;;;;10467152;28;20225;-79
2023/10/24 03:13:01;;;;;;;7.17;6.47;;;14.30;99.90;;;;;;10464725;28;20722;-78
2023/10/24 03:18:25;;;;;;;5.93;5.53;;;14.30;99.90;;;;;;10467380;28;20774;-79
2023/10/24 03:23:47;;;;;;;6.53;6.00;;;14.30;99.90;;;;;;10465463;28;20233;-79
2023/10/24 03:29:09;;;;;;;4.97;4.67;;;14.30;99.90;;;;;;10464002;28;20218;-79
2023/10/24 03:34:34;;;;;;;5.23;4.83;;;14.40;99.90;;;;;;10465149;28;20548;-79
2023/10/24 03:39:56;;;;;;;4.47;4.27;;;14.40;99.90;;;;;;10450786;28;20212;-78
2023/10/24 03:45:19;;;;;;;5.67;5.13;;;14.40;99.90;;;;;;10534924;22;20782;-79
2023/10/24 03:50:42;;;;;;;6.37;5.30;;;14.40;99.90;;;;;;10519764;28;20225;-78
2023/10/24 03:56:04;;;;;;;4.80;4.30;;;14.30;99.90;;;;;;10510536;28;20331;-77
2023/10/24 04:01:27;;;;;;;5.63;4.70;;;14.30;99.90;;;;;;10498883;28;20206;-79
2023/10/24 04:06:51;;;;;;;4.90;4.50;;;14.30;99.90;;;;;;10494578;28;20232;-79
2023/10/24 04:12:13;;;;;;;4.50;4.17;;;14.40;99.90;;;;;;10496982;28;20720;-78
2023/10/24 04:17:35;;;;;;;4.30;4.00;;;14.30;99.90;;;;;;10501804;28;20605;-78
2023/10/24 04:23:03;;;;;;;3.70;3.10;;;14.40;99.90;;;;;;10478691;28;20216;-77
2023/10/24 04:28:25;;;;;;;5.57;5.07;;;14.40;99.90;;;;;;10493849;28;20212;-78
2023/10/24 04:33:47;;;;;;;4.33;3.93;;;14.40;99.90;;;;;;10495837;28;20212;-78
2023/10/24 04:39:11;;;;;;;8.53;5.20;;;14.40;99.90;;;;;;10464514;28;20196;-79
2023/10/24 04:44:33;;;;;;;6.30;5.20;;;14.40;99.90;;;;;;10482442;28;20713;-79
2023/10/24 04:49:55;;;;;;;5.30;4.80;;;14.40;99.90;;;;;;10493676;28;20600;-79
2023/10/24 04:55:19;;;;;;;6.90;6.40;;;14.40;99.90;;;;;;10492320;28;20221;-79
2023/10/24 05:00:41;;;;;;;4.53;4.13;;;14.40;99.90;;;;;;10497154;28;20203;-78
2023/10/24 05:06:03;;;;;;;5.83;5.00;;;14.40;99.90;;;;;;10495224;28;20219;-78
2023/10/24 05:11:27;;;;;;;4.83;4.53;;;14.40;99.90;;;;;;10476067;28;20449;-77
2023/10/24 05:16:49;;;;;;;5.17;4.20;;;14.40;99.90;;;;;;10491668;28;20201;-78
2023/10/24 05:22:13;;;;;;;5.53;4.60;;;14.40;99.90;;;;;;10491351;28;20243;-77
2023/10/24 05:27:38;;;;;;;4.27;3.80;;;14.40;99.90;;;;;;10490907;28;20220;-78
2023/10/24 05:33:00;;;;;;;5.37;4.77;;;14.40;99.90;;;;;;10493213;28;20213;-78
2023/10/24 05:38:37;;;;;;;5.10;4.70;;;14.40;99.90;;;;;;10443577;28;20200;-78
2023/10/24 05:44:01;;;;;;;5.00;4.60;;;14.40;99.90;;;;;;10491149;28;20233;-78
2023/10/24 05:49:23;;;;;;;5.20;4.37;;;14.40;99.90;;;;;;10492162;28;20240;-78
2023/10/24 05:54:45;;;;;;;4.70;4.30;;;14.40;99.90;;;;;;10479328;28;20287;-77
2023/10/24 06:00:10;;;;;;;4.67;4.37;;;14.40;99.90;;;;;;10496159;28;20193;-78
2023/10/24 06:05:32;;;;;;;7.63;5.20;;;14.40;99.90;;;;;;10495449;28;20217;-78
2023/10/24 06:10:55;;;;;;;5.87;5.40;;;14.30;99.90;;;;;;10493825;28;20228;-77
2023/10/24 06:16:19;;;;;;;4.80;4.40;;;14.30;99.90;;;;;;10494633;28;20298;-78
2023/10/24 06:21:41;;;;;;;5.20;4.70;;;14.30;99.90;;;;;;10500361;28;20185;-78
2023/10/24 06:27:04;;;;;;;7.30;5.30;;;14.30;99.90;;;;;;10462920;28;20219;-78
2023/10/24 06:32:27;;;;;;;5.57;5.17;;;14.30;99.90;;;;;;10494023;28;20347;-78
2023/10/24 06:37:50;;;;;;;4.67;4.27;;;14.30;99.90;;;;;;10495586;28;20197;-78
2023/10/24 06:43:12;;;;;;;5.47;4.97;;;14.40;99.90;;;;;;10494545;28;20236;-78
2023/10/24 06:48:36;;;;;;;5.53;5.03;;;14.40;99.90;;;;;;10504139;28;20222;-78
2023/10/24 06:53:58;;;;;;;6.30;5.80;;;14.40;99.90;;;;;;10492294;28;20228;-78
2023/10/24 06:59:20;;;;;;;6.90;6.20;;;14.40;99.90;;;;;;10492013;28;20235;-78
2023/10/24 07:04:43;;;;;;;6.10;5.47;;;14.40;99.90;;;;;;10492781;28;20220;-78
2023/10/24 07:10:06;;;;;;;5.63;5.20;;;14.40;99.90;;;;;;10485387;28;20702;-78
2023/10/24 07:15:28;;;;;;;9.63;5.63;;;14.40;99.90;;;;;;10486515;28;20225;-78
2023/10/24 07:20:57;;;;;;;7.53;6.80;;;14.40;99.90;;;;;;10490987;28;20446;-78
2023/10/24 07:26:20;;;;;;;8.43;6.43;;;14.40;99.90;;;;;;10492531;28;20264;-77
2023/10/24 07:31:42;;;;;;;9.03;6.70;;;14.40;99.90;;;;;;10489606;28;20197;-78
2023/10/24 07:37:06;;;;;;;7.03;6.43;;;14.40;99.90;;;;;;10492843;28;20205;-78
2023/10/24 07:42:28;;;;;;;7.40;6.70;;;14.40;99.90;;;;;;10492206;28;20237;-77
2023/10/24 07:47:51;;;;;;;7.50;6.53;;;14.40;99.90;;;;;;10493023;28;20224;-79
2023/10/24 07:53:15;;;;;;;7.90;6.60;;;14.40;99.90;;;;;;10494856;28;20223;-79
2023/10/24 07:58:37;;;;;;;6.70;6.10;;;14.40;99.90;;;;;;10495413;28;20696;-79
2023/10/24 08:03:59;;;;;;;6.03;5.40;;;14.30;99.90;;;;;;10497400;28;20570;-79
2023/10/24 08:09:23;;;;;;;9.10;8.30;;;14.30;99.90;;;;;;10484403;28;20229;-79
2023/10/24 08:14:45;;;;;;;8.90;8.00;;;14.20;99.90;;;;;;10494028;28;20720;-79
2023/10/24 08:20:08;;;;;;;9.57;8.87;;;14.20;99.90;;;;;;10497441;28;20560;-79
2023/10/24 08:25:32;;;;;;;9.20;8.47;;;14.10;99.90;;;;;;10475628;28;20313;-79
2023/10/24 08:30:54;;;;;;;12.73;11.27;;;14.10;99.90;;;;;;10493307;28;20221;-79
2023/10/24 08:36:16;;;;;;;13.40;12.27;;;14.10;99.90;;;;;;10494129;28;20221;-79
2023/10/24 08:41:41;;;;;;;14.60;13.40;;;14.10;99.90;;;;;;10501987;28;20307;-79
2023/10/24 08:47:05;;;;;;;15.27;14.07;;;14.10;99.90;;;;;;10500062;28;20637;-77
2023/10/24 08:52:28;;;;;;;14.60;13.60;;;14.00;99.90;;;;;;10503871;28;20286;-77
2023/10/24 08:57:53;;;;;;;15.30;14.23;;;14.00;99.90;;;;;;10496875;28;20229;-81
2023/10/24 09:03:17;;;;;;;12.10;11.10;;;13.90;99.90;;;;;;10495793;28;20236;-80
2023/10/24 09:08:39;;;;;;;17.83;16.53;;;13.90;99.90;;;;;;10495879;28;20236;-79
2023/10/24 09:14:03;;;;;;;16.50;15.30;;;13.90;99.90;;;;;;10495763;28;20236;-80
2023/10/24 09:19:26;;;;;;;19.40;17.67;;;13.90;99.90;;;;;;10494994;28;20193;-80
2023/10/24 09:24:50;;;;;;;18.57;17.17;;;13.80;99.90;;;;;;10493568;28;20213;-77
2023/10/24 09:30:15;;;;;;;17.27;16.07;;;13.80;99.90;;;;;;10473616;28;20544;-78
2023/10/24 09:35:37;;;;;;;17.37;15.97;;;13.90;99.90;;;;;;10485524;28;20255;-78
2023/10/24 09:41:01;;;;;;;19.07;17.47;;;13.90;99.90;;;;;;10504128;28;20204;-77
2023/10/24 09:46:26;;;;;;;17.77;16.57;;;14.00;99.90;;;;;;10493176;28;20240;-77
2023/10/24 09:51:49;;;;;;;17.10;16.00;;;14.00;99.90;;;;;;10493129;28;20227;-79
2023/10/24 09:57:11;;;;;;;17.13;16.00;;;14.00;99.90;;;;;;10493063;28;20205;-78
2023/10/24 10:02:40;;;;;;;16.23;15.03;;;14.00;99.90;;;;;;10492702;28;20216;-77
2023/10/24 10:08:05;;;;;;;17.03;15.70;;;14.10;99.90;;;;;;10477214;28;20361;-78
2023/10/24 10:13:30;;;;;;;15.10;14.00;;;14.20;99.90;;;;;;10486136;28;20239;-77
2023/10/24 10:19:18;;;;;;;21.27;19.57;;;14.30;99.90;;;;;;10494201;28;20208;-77
2023/10/24 10:25:08;;;;;;;17.30;15.90;;;14.30;99.90;;;;;;10484881;28;20209;-77
2023/10/24 10:30:38;;;;;;;22.00;19.90;;;14.30;99.90;;;;;;10490994;28;20238;-79
2023/10/24 10:36:04;;;;;;;20.70;19.10;;;14.40;99.90;;;;;;10491934;28;20249;-78
2023/10/24 10:41:36;;;;;;;19.97;18.40;;;14.40;99.90;;;;;;10481819;28;20288;-77
2023/10/24 10:47:03;;;;;;;21.37;19.53;;;14.40;99.90;;;;;;10468878;28;20254;-79
2023/10/24 10:52:42;;;;;;;21.20;19.40;;;14.50;99.90;;;;;;10476244;28;20224;-78
2023/10/24 10:58:19;;;;;;;18.53;17.03;;;14.50;99.90;;;;;;10471546;28;20209;-79
2023/10/24 11:03:44;;;;;;;17.37;15.80;;;14.50;99.90;;;;;;10473985;28;20217;-79
2023/10/24 11:09:10;;;;;;;22.73;20.70;;;14.50;99.90;;;;;;10448544;28;20235;-79
2023/10/24 11:14:33;;;;;;;22.17;20.40;;;14.60;99.90;;;;;;10495092;28;21346;-79
2023/10/24 11:19:56;;;;;;;25.17;20.93;;;14.60;99.90;;;;;;10493444;28;20564;-79
2023/10/24 11:25:20;;;;;;;22.43;20.33;;;14.60;99.90;;;;;;10503631;28;20624;-76
2023/10/24 11:30:42;;;;;;;24.20;22.00;;;14.70;99.90;;;;;;10503805;28;20647;-78
2023/10/24 11:36:06;;;;;;;24.40;22.30;;;14.70;99.90;;;;;;10498317;28;20594;-79
2023/10/24 11:41:30;;;;;;;22.57;20.67;;;14.70;99.90;;;;;;10495839;28;20612;-76
2023/10/24 11:46:52;;;;;;;22.63;20.77;;;14.70;99.90;;;;;;10495133;28;20196;-79
2023/10/24 11:52:15;;;;;;;23.90;21.83;;;14.70;99.90;;;;;;10495545;28;20225;-80
2023/10/24 11:57:39;;;;;;;21.73;19.83;;;14.70;99.90;;;;;;10497896;28;20201;-79
2023/10/24 12:03:05;;;;;;;20.70;18.70;;;14.70;99.90;;;;;;10499470;28;20221;-79
2023/10/24 12:08:27;;;;;;;21.17;19.20;;;14.70;99.90;;;;;;10490101;28;20358;-79
2023/10/24 12:13:51;;;;;;;23.00;20.93;;;14.70;99.90;;;;;;10505214;28;20225;-80
2023/10/24 12:19:13;;;;;;;25.07;22.43;;;14.80;99.90;;;;;;10500268;28;20192;-79
2023/10/24 12:24:35;;;;;;;21.97;20.20;;;14.80;99.90;;;;;;10499517;28;20217;-80
2023/10/24 12:29:59;;;;;;;16.20;14.80;;;14.80;99.90;;;;;;10505432;28;20228;-79
2023/10/24 12:35:21;;;;;;;15.37;14.37;;;14.90;99.90;;;;;;10501262;28;20221;-78
2023/10/24 12:40:44;;;;;;;14.20;13.00;;;14.90;99.90;;;;;;10459770;28;20193;-77
2023/10/24 12:46:08;;;;;;;11.33;10.40;;;14.90;99.90;;;;;;10496909;28;20279;-79
2023/10/24 12:51:30;;;;;;;14.93;13.93;;;14.90;99.90;;;;;;10498067;28;20704;-79
2023/10/24 12:56:52;;;;;;;15.20;13.90;;;14.90;99.90;;;;;;10495108;28;20197;-78
2023/10/24 13:02:16;;;;;;;20.97;19.37;;;14.90;99.90;;;;;;10496749;28;20383;-79
2023/10/24 13:07:38;;;;;;;20.40;18.90;;;15.00;99.90;;;;;;10496006;28;20196;-80
2023/10/24 13:13:01;;;;;;;20.17;18.70;;;15.00;99.90;;;;;;10490371;28;20290;-80
2023/10/24 13:18:25;;;;;;;15.87;14.00;;;15.00;99.90;;;;;;10499011;28;20197;-80
2023/10/24 13:23:47;;;;;;;10.90;10.30;;;15.00;99.90;;;;;;10477584;28;20224;-79
2023/10/24 13:29:09;;;;;;;9.53;8.83;;;14.90;99.90;;;;;;10494027;28;20229;-79
2023/10/24 13:34:33;;;;;;;10.57;10.00;;;14.90;99.90;;;;;;10495048;28;20224;-79
2023/10/24 13:39:55;;;;;;;13.73;12.53;;;14.80;99.90;;;;;;10496361;28;20193;-79
2023/10/24 13:45:17;;;;;;;12.80;11.70;;;14.80;99.90;;;;;;10495284;28;20235;-79
2023/10/24 13:50:41;;;;;;;10.57;9.97;;;14.80;99.90;;;;;;10495184;28;20231;-79
2023/10/24 13:56:04;;;;;;;13.43;12.60;;;14.80;99.90;;;;;;10495605;28;20221;-80
2023/10/24 14:01:28;;;;;;;13.20;12.40;;;14.70;99.90;;;;;;10479968;28;20197;-78
2023/10/24 14:06:51;;;;;;;12.17;11.27;;;14.80;99.90;;;;;;10498623;28;20614;-78
2023/10/24 14:12:13;;;;;;;11.97;11.13;;;14.80;99.90;;;;;;10481817;28;20236;-79
2023/10/24 14:17:35;;;;;;;17.53;16.13;;;14.90;99.90;;;;;;10481539;28;20686;-79
2023/10/24 14:22:59;;;;;;;14.67;13.80;;;14.90;99.90;;;;;;10483093;28;20694;-79
2023/10/24 14:28:21;;;;;;;15.37;14.07;;;14.90;99.90;;;;;;10481008;28;20725;-80
2023/10/24 14:33:43;;;;;;;16.43;14.60;;;14.80;99.90;;;;;;10491744;28;20213;-80
2023/10/24 14:39:07;;;;;;;13.60;12.30;;;14.80;99.90;;;;;;10468290;28;20212;-80
2023/10/24 14:44:29;;;;;;;17.27;15.87;;;14.80;99.90;;;;;;10479037;28;20229;-80
2023/10/24 14:49:51;;;;;;;16.50;15.00;;;14.80;99.90;;;;;;10503182;28;20209;-79
2023/10/24 14:55:15;;;;;;;8.17;7.70;;;14.80;99.90;;;;;;10506052;28;20330;-80
2023/10/24 15:00:37;;;;;;;9.13;8.63;;;14.70;99.90;;;;;;10504441;28;20622;-80
2023/10/24 15:05:59;;;;;;;11.67;10.70;;;14.60;99.90;;;;;;10505771;28;20213;-79
2023/10/24 15:11:23;;;;;;;10.37;9.87;;;14.60;99.90;;;;;;10495017;28;20224;-80
2023/10/24 15:16:45;;;;;;;9.10;8.50;;;14.70;99.90;;;;;;10495177;28;20534;-80
2023/10/24 15:22:07;;;;;;;9.70;9.20;;;14.70;99.90;;;;;;10507324;28;20282;-79
2023/10/24 15:27:31;;;;;;;7.00;6.60;;;14.70;99.90;;;;;;10508252;28;20200;-80
2023/10/24 15:32:53;;;;;;;14.50;12.90;;;14.80;99.90;;;;;;10488335;28;20228;-80
2023/10/24 15:38:15;;;;;;;11.90;10.10;;;14.80;99.90;;;;;;10503169;28;20217;-79
2023/10/24 15:43:39;;;;;;;10.50;9.70;;;14.80;99.90;;;;;;10504409;28;20240;-79
2023/10/24 15:49:01;;;;;;;6.40;6.10;;;14.80;99.90;;;;;;10500486;28;21026;-77
2023/10/24 15:54:23;;;;;;;8.43;8.03;;;14.70;99.90;;;;;;10528108;22;20689;-81
2023/10/24 15:59:47;;;;;;;6.00;5.60;;;14.70;99.90;;;;;;10458989;28;20263;-78
2023/10/24 16:05:09;;;;;;;9.90;9.30;;;14.70;99.90;;;;;;10454506;28;20218;-79
2023/10/24 16:10:31;;;;;;;8.30;7.80;;;14.60;99.90;;;;;;10433586;28;20272;-79
2023/10/24 16:15:55;;;;;;;11.57;9.60;;;14.60;99.90;;;;;;10421840;28;20230;-79
2023/10/24 16:21:18;;;;;;;10.40;9.70;;;14.60;99.90;;;;;;10413531;28;20678;-79
2023/10/24 16:26:40;;;;;;;8.33;7.47;;;14.60;99.90;;;;;;10420243;28;20218;-80
2023/10/24 16:32:04;;;;;;;10.33;9.40;;;14.60;99.90;;;;;;10411603;28;20237;-80
2023/10/24 16:37:26;;;;;;;10.50;9.80;;;14.60;99.90;;;;;;10422581;28;20221;-80
2023/10/24 16:42:48;;;;;;;7.97;7.57;;;14.60;99.90;;;;;;10427717;28;20202;-79
2023/10/24 16:48:12;;;;;;;6.20;5.70;;;14.50;99.90;;;;;;10420590;28;20707;-78
2023/10/24 16:53:35;;;;;;;9.67;9.17;;;14.50;99.90;;;;;;10422096;28;20217;-79
2023/10/24 16:58:57;;;;;;;7.27;6.83;;;14.50;99.90;;;;;;10422079;28;20245;-79
2023/10/24 17:04:20;;;;;;;8.33;7.93;;;14.50;99.90;;;;;;10423967;28;20198;-79
2023/10/24 17:09:42;;;;;;;8.30;7.90;;;14.50;99.90;;;;;;10418131;28;20271;-80
2023/10/24 17:15:06;;;;;;;11.07;10.37;;;14.60;99.90;;;;;;10416525;28;20225;-80
2023/10/24 17:20:33;;;;;;;8.00;7.60;;;14.50;99.90;;;;;;10390568;28;20812;-81
2023/10/24 17:25:57;;;;;;;9.20;8.80;;;14.40;99.90;;;;;;10408875;28;20223;-80
2023/10/24 17:31:19;;;;;;;7.87;7.37;;;14.30;99.90;;;;;;10413693;28;20226;-81
2023/10/24 17:36:43;;;;;;;7.50;7.20;;;14.10;99.90;;;;;;10421558;28;20217;-80
2023/10/24 17:42:08;;;;;;;7.57;7.27;;;14.00;99.90;;;;;;10423405;28;20201;-80
2023/10/24 17:47:32;;;;;;;8.60;8.20;;;13.90;99.90;;;;;;10391738;28;20237;-80
2023/10/24 17:52:58;;;;;;;7.93;7.53;;;13.90;99.90;;;;;;10412103;28;20231;-80
2023/10/24 17:58:20;;;;;;;7.73;7.30;;;13.90;99.90;;;;;;10418548;28;20311;-80
2023/10/24 18:03:42;;;;;;;5.83;5.43;;;13.80;99.90;;;;;;10399398;28;20206;-80
2023/10/24 18:09:06;;;;;;;7.53;7.20;;;13.70;99.90;;;;;;10411506;28;20561;-79
2023/10/24 18:14:28;;;;;;;9.70;9.00;;;13.70;99.90;;;;;;10409205;28;20597;-79
2023/10/24 18:19:51;;;;;;;7.77;7.30;;;13.70;99.90;;;;;;10405015;28;20226;-81
2023/10/24 18:25:15;;;;;;;8.10;7.60;;;13.80;99.90;;;;;;10416965;28;20261;-79
2023/10/24 18:30:37;;;;;;;8.50;8.00;;;13.80;99.90;;;;;;10407892;28;20237;-80
2023/10/24 18:35:59;;;;;;;8.50;8.00;;;13.80;99.90;;;;;;10411883;28;20237;-80
2023/10/24 18:41:23;;;;;;;7.03;6.33;;;13.80;99.90;;;;;;10402311;28;20573;-81
2023/10/24 18:46:45;;;;;;;6.97;6.47;;;13.90;99.90;;;;;;10402825;28;20260;-80
2023/10/24 18:52:08;;;;;;;9.40;8.80;;;13.90;99.90;;;;;;10398072;28;20237;-80
2023/10/24 18:57:31;;;;;;;8.87;8.47;;;13.90;99.90;;;;;;10413727;28;20235;-81
2023/10/24 19:02:54;;;;;;;6.90;6.60;;;13.90;99.90;;;;;;10412348;28;20190;-80
2023/10/24 19:08:17;;;;;;;7.27;6.97;;;13.90;99.90;;;;;;10411419;28;20236;-81
2023/10/24 19:13:41;;;;;;;7.60;7.30;;;13.90;99.90;;;;;;10408281;28;20224;-80
2023/10/24 19:19:03;;;;;;;7.93;7.37;;;13.90;99.90;;;;;;10419043;28;20238;-81
2023/10/24 19:24:26;;;;;;;6.83;6.53;;;13.90;99.90;;;;;;10383794;28;20206;-80
2023/10/24 19:29:50;;;;;;;7.47;7.17;;;13.80;99.90;;;;;;10402783;28;20275;-81
2023/10/24 19:35:14;;;;;;;8.13;7.63;;;13.80;99.90;;;;;;10412595;28;20218;-80
2023/10/24 19:40:38;;;;;;;6.47;6.17;;;13.80;99.90;;;;;;10417016;28;20208;-80
2023/10/24 19:46:04;;;;;;;7.53;7.23;;;13.80;99.90;;;;;;10390959;28;20225;-80
2023/10/24 19:51:28;;;;;;;7.43;7.13;;;13.70;99.90;;;;;;10409510;28;20695;-81
2023/10/24 19:56:51;;;;;;;7.43;7.13;;;13.60;99.90;;;;;;10411034;28;20237;-80
2023/10/24 20:02:15;;;;;;;7.90;7.50;;;13.60;99.90;;;;;;10410133;28;20195;-80
2023/10/24 20:07:39;;;;;;;7.70;7.40;;;13.50;99.90;;;;;;10423845;28;20227;-81
2023/10/24 20:13:02;;;;;;;8.67;8.17;;;13.50;99.90;;;;;;10410539;28;20305;-81
2023/10/24 20:18:26;;;;;;;9.33;8.83;;;13.50;99.90;;;;;;10391359;28;20226;-80
2023/10/24 20:23:50;;;;;;;9.70;8.87;;;13.50;99.90;;;;;;10415184;28;20280;-80
2023/10/24 20:29:13;;;;;;;8.73;8.23;;;13.50;99.90;;;;;;10423377;28;20226;-81
2023/10/24 20:34:36;;;;;;;9.43;8.87;;;13.50;99.90;;;;;;10416438;28;20214;-81
2023/10/24 20:39:58;;;;;;;9.70;9.20;;;13.50;99.90;;;;;;10415400;28;20207;-81
2023/10/24 20:45:21;;;;;;;9.40;8.87;;;13.50;99.90;;;;;;10423548;28;20333;-81
2023/10/24 20:50:46;;;;;;;9.93;9.33;;;13.50;99.90;;;;;;10406365;28;20643;-81
2023/10/24 20:56:08;;;;;;;10.40;9.80;;;13.50;99.90;;;;;;10407320;28;20242;-80
2023/10/24 21:01:30;;;;;;;9.47;8.87;;;13.40;99.90;;;;;;10426836;28;20223;-81
2023/10/24 21:06:54;;;;;;;10.27;8.40;;;13.40;99.90;;;;;;10423523;28;20226;-81
2023/10/24 21:12:16;;;;;;;8.80;8.20;;;13.40;99.90;;;;;;10440592;28;20226;-81
2023/10/24 21:17:38;;;;;;;9.33;8.73;;;13.40;99.90;;;;;;10420268;28;20226;-81
2023/10/24 21:23:01;;;;;;;8.80;8.30;;;13.40;99.90;;;;;;10440847;28;20631;-81
2023/10/24 21:28:24;;;;;;;9.30;8.80;;;13.50;99.90;;;;;;10415761;28;20230;-80
2023/10/24 21:33:46;;;;;;;9.07;8.37;;;13.50;99.90;;;;;;10449144;28;20635;-81
2023/10/24 21:39:09;;;;;;;8.93;8.43;;;13.50;99.90;;;;;;10372830;28;20237;-79
2023/10/24 21:44:32;;;;;;;10.10;9.40;;;13.50;99.90;;;;;;10398580;28;20210;-79
2023/10/24 21:49:54;;;;;;;9.60;8.33;;;13.50;99.90;;;;;;10397014;28;20211;-79
2023/10/24 21:55:18;;;;;;;8.73;8.23;;;13.50;99.90;;;;;;10393144;28;20229;-79
2023/10/24 22:00:40;;;;;;;7.50;7.03;;;13.50;99.90;;;;;;10396428;28;20558;-80
2023/10/24 22:06:03;;;;;;;9.00;8.50;;;13.50;99.90;;;;;;10470185;23;20285;-77
2023/10/24 22:11:26;;;;;;;8.13;7.63;;;13.50;99.90;;;;;;10470178;28;20363;-76
2023/10/24 22:16:49;;;;;;;8.23;7.60;;;13.60;99.90;;;;;;10471700;28;20221;-77
2023/10/24 22:22:11;;;;;;;8.30;7.90;;;13.60;99.90;;;;;;10451909;28;20240;-77
2023/10/24 22:27:36;;;;;;;8.20;7.80;;;13.60;99.90;;;;;;10468870;28;20689;-77
2023/10/24 22:32:59;;;;;;;8.33;7.83;;;13.60;99.90;;;;;;10454802;28;20236;-77
2023/10/24 22:38:26;;;;;;;8.30;7.70;;;13.70;99.90;;;;;;10468708;28;20200;-77
2023/10/24 22:43:51;;;;;;;8.13;7.63;;;13.70;99.90;;;;;;10472935;28;20583;-76
2023/10/24 22:49:13;;;;;;;8.03;7.63;;;13.70;99.90;;;;;;10473770;28;20208;-77
2023/10/24 22:54:36;;;;;;;7.80;7.40;;;13.70;99.90;;;;;;10472843;28;20218;-77
2023/10/24 23:00:00;;;;;;;7.30;7.00;;;13.70;99.90;;;;;;10470177;28;20289;-77
2023/10/24 23:05:24;;;;;;;7.97;7.57;;;13.70;99.90;;;;;;10468420;28;20227;-77
2023/10/24 23:10:46;;;;;;;7.93;7.57;;;13.60;99.90;;;;;;10475107;28;20239;-77
2023/10/24 23:16:10;;;;;;;7.47;7.07;;;13.60;99.90;;;;;;10477901;28;20232;-77
2023/10/24 23:21:32;;;;;;;6.20;5.90;;;13.50;99.90;;;;;;10475835;28;20196;-77
2023/10/24 23:26:54;;;;;;;6.70;6.40;;;13.50;99.90;;;;;;10476962;28;20694;-77
2023/10/24 23:32:19;;;;;;;6.07;5.77;;;13.40;99.90;;;;;;10477303;28;20217;-77
2023/10/24 23:37:42;;;;;;;6.60;6.20;;;13.30;99.90;;;;;;10476709;28;20205;-77
2023/10/24 23:43:04;;;;;;;7.00;6.50;;;13.20;99.90;;;;;;10477515;28;20213;-77
2023/10/24 23:48:27;;;;;;;6.30;5.90;;;13.00;99.90;;;;;;10455795;28;20689;-77
2023/10/24 23:53:50;;;;;;;6.73;6.30;;;12.90;99.90;;;;;;10472303;28;20243;-77
2023/10/24 23:59:12;;;;;;;6.13;5.83;;;12.90;99.90;;;;;;10500712;28;20203;-76
